Argyle, WI

10:13 AM CDT on August 30, 2014 (GMT -0500)
Johnson's Mountain | Change Station
CLOSE
Current Station
Personal Weather Station
Location: Blanchardville, WI
Elevation: 1076 ft
Nearby Weather Stations

Elev 1076 ft 42.80 °N, 89.79 °W | Updated 3 minutes ago

Overcast
Overcast
67.0 °F
Feels Like 67.0 °F
N
3.0
Wind Variable Wind from SSW
Gusts 6.0 mph

Today
High -- | Low -- °F
--% Chance of Precip.
Yesterday
High -- | Low -- °F
Precip. -- in
6:22 AM 7:37 PM
Waxing Crescent, 22% visible
Pressure 29.81 in
Visibility 10.0 miles
Clouds Mostly Cloudy 1100 ft
Overcast 2000 ft
Dew Point 66 °F
Humidity 97%
Rainfall 0.06 in
Snow Depth Not available.
UV 1 out of 12
Pollen 2.90 out of 12
Air Quality Not available.
Flu Activity Not available.
METAR KEFT 301455Z AUTO 22014G22KT 10SM BKN011 OVC020 21/18 A2981 RMK AO2

More Conditions Fewer Conditions

Pressure 29.81 in
Visibility 10.0 miles
Clouds Mostly Cloudy 1100 ft
Overcast 2000 ft
Dew Point 66 °F
Humidity 97%
Rainfall 0.06 in
Snow Depth Not available.
UV 1 out of 12
Pollen 2.90 out of 12
Air Quality Not available.
Flu Activity Not available.
METAR KEFT 301455Z AUTO 22014G22KT 10SM BKN011 OVC020 21/18 A2981 RMK AO2

More Conditions Fewer Conditions

10-Day Weather Forecast

Almanac

Astronomy

Aug. 30, 2014 Rise Set
Actual Time 6:22 AM CDT 7:37 PM CDT
Civil Twilight 5:53 AM CDT 8:06 PM CDT
Nautical Twilight 5:17 AM CDT 8:41 PM CDT
Astronomical Twilight 4:40 AM CDT 9:18 PM CDT
Moon 11:17 AM CDT 10:03 PM CDT
Length of Visible Light 14h 13m
Length of Day
13h 15m
Tomorrow will be 2m 47s shorter.
Waxing Crescent, 22% of the Moon is Illuminated
Today
Waxing Crescent
Sep 2
First Quarter
Sep 8
Full
Sep 15
Last Quarter
Sep 24
New

Today's Extremes

State Highs State Lows

Community

WunderPhotos

Upload Photos

1,748,543 photos uploaded!

WunderBlogs® & News

Nearby

Snow Depth

Station Depth Elevation
No new snow has been reported.

Earthquake Activity

City Distance Mag. Time & Date
No recent earthquake activity has been reported nearby.
Minimum magnitude displayed is 2.5.

Coastal Water Temperatures

Place Temperature
No Stations Reporting

Nearby Weather Stations